sensor_id;sensor_type;location;lat;lon;timestamp;temperature;humidity
2623;DHT22;1321;48.690;9.022;2023-09-18T00:02:16;22.20;99.90
2623;DHT22;1321;48.690;9.022;2023-09-18T00:04:44;22.10;99.90
2623;DHT22;1321;48.690;9.022;2023-09-18T00:07:13;22.00;99.90
2623;DHT22;1321;48.690;9.022;2023-09-18T00:09:41;22.10;99.90
2623;DHT22;1321;48.690;9.022;2023-09-18T00:12:09;22.10;99.90
2623;DHT22;1321;48.690;9.022;2023-09-18T00:14:39;22.10;99.90
2623;DHT22;1321;48.690;9.022;2023-09-18T00:17:08;22.10;99.90
2623;DHT22;1321;48.690;9.022;2023-09-18T00:19:36;22.00;99.90
2623;DHT22;1321;48.690;9.022;2023-09-18T00:22:04;22.00;99.90
2623;DHT22;1321;48.690;9.022;2023-09-18T00:24:33;22.00;99.90
2623;DHT22;1321;48.690;9.022;2023-09-18T00:27:01;21.90;99.90
2623;DHT22;1321;48.690;9.022;2023-09-18T00:29:29;21.90;99.90
2623;DHT22;1321;48.690;9.022;2023-09-18T00:31:59;21.90;99.90
2623;DHT22;1321;48.690;9.022;2023-09-18T00:34:29;21.90;99.90
2623;DHT22;1321;48.690;9.022;2023-09-18T00:36:58;21.90;99.90
2623;DHT22;1321;48.690;9.022;2023-09-18T00:39:27;21.80;99.90
2623;DHT22;1321;48.690;9.022;2023-09-18T00:41:55;21.80;99.90
2623;DHT22;1321;48.690;9.022;2023-09-18T00:44:24;21.80;99.90
2623;DHT22;1321;48.690;9.022;2023-09-18T00:46:53;21.90;99.90
2623;DHT22;1321;48.690;9.022;2023-09-18T00:49:24;21.90;99.90
2623;DHT22;1321;48.690;9.022;2023-09-18T00:51:53;21.90;99.90
2623;DHT22;1321;48.690;9.022;2023-09-18T00:54:22;21.90;99.90
2623;DHT22;1321;48.690;9.022;2023-09-18T00:56:52;21.90;99.90
2623;DHT22;1321;48.690;9.022;2023-09-18T00:59:22;21.90;99.90
2623;DHT22;1321;48.690;9.022;2023-09-18T01:01:50;21.90;99.90
2623;DHT22;1321;48.690;9.022;2023-09-18T01:04:18;21.90;99.90
2623;DHT22;1321;48.690;9.022;2023-09-18T01:06:48;21.90;99.90
2623;DHT22;1321;48.690;9.022;2023-09-18T01:09:17;21.90;99.90
2623;DHT22;1321;48.690;9.022;2023-09-18T01:11:50;22.00;99.90
2623;DHT22;1321;48.690;9.022;2023-09-18T01:14:25;21.90;99.90
2623;DHT22;1321;48.690;9.022;2023-09-18T01:16:57;22.00;99.90
2623;DHT22;1321;48.690;9.022;2023-09-18T01:19:36;22.00;99.90
2623;DHT22;1321;48.690;9.022;2023-09-18T01:22:07;22.00;99.90
2623;DHT22;1321;48.690;9.022;2023-09-18T01:24:38;22.10;99.90
2623;DHT22;1321;48.690;9.022;2023-09-18T01:27:08;22.20;99.90
2623;DHT22;1321;48.690;9.022;2023-09-18T01:29:36;22.20;99.90
2623;DHT22;1321;48.690;9.022;2023-09-18T01:32:05;22.30;99.90
2623;DHT22;1321;48.690;9.022;2023-09-18T01:34:35;22.30;99.90
2623;DHT22;1321;48.690;9.022;2023-09-18T01:37:04;22.30;99.90
2623;DHT22;1321;48.690;9.022;2023-09-18T01:39:35;22.40;99.90
2623;DHT22;1321;48.690;9.022;2023-09-18T01:42:06;22.40;99.90
2623;DHT22;1321;48.690;9.022;2023-09-18T01:44:36;22.40;99.90
2623;DHT22;1321;48.690;9.022;2023-09-18T01:47:07;22.40;99.90
2623;DHT22;1321;48.690;9.022;2023-09-18T01:49:39;22.50;99.90
2623;DHT22;1321;48.690;9.022;2023-09-18T01:52:08;22.40;99.90
2623;DHT22;1321;48.690;9.022;2023-09-18T01:54:37;22.40;99.90
2623;DHT22;1321;48.690;9.022;2023-09-18T01:57:06;22.30;99.90
2623;DHT22;1321;48.690;9.022;2023-09-18T01:59:35;22.20;99.90
2623;DHT22;1321;48.690;9.022;2023-09-18T02:02:05;22.20;99.90
2623;DHT22;1321;48.690;9.022;2023-09-18T02:04:39;22.20;1.00
2623;DHT22;1321;48.690;9.022;2023-09-18T02:07:27;22.10;1.00
2623;DHT22;1321;48.690;9.022;2023-09-18T02:09:56;22.10;1.00
2623;DHT22;1321;48.690;9.022;2023-09-18T02:12:25;22.10;1.00
2623;DHT22;1321;48.690;9.022;2023-09-18T02:14:53;22.10;1.00
2623;DHT22;1321;48.690;9.022;2023-09-18T02:17:24;22.20;1.00
2623;DHT22;1321;48.690;9.022;2023-09-18T02:19:52;22.10;99.90
2623;DHT22;1321;48.690;9.022;2023-09-18T02:22:20;22.10;1.00
2623;DHT22;1321;48.690;9.022;2023-09-18T02:24:48;22.10;1.00
2623;DHT22;1321;48.690;9.022;2023-09-18T02:27:17;22.00;1.00
2623;DHT22;1321;48.690;9.022;2023-09-18T02:29:46;22.00;1.00
2623;DHT22;1321;48.690;9.022;2023-09-18T02:32:16;22.00;99.90
2623;DHT22;1321;48.690;9.022;2023-09-18T02:34:46;22.20;99.90
2623;DHT22;1321;48.690;9.022;2023-09-18T02:37:14;22.20;99.90
2623;DHT22;1321;48.690;9.022;2023-09-18T02:39:42;22.30;99.90
2623;DHT22;1321;48.690;9.022;2023-09-18T02:42:10;22.20;99.90
2623;DHT22;1321;48.690;9.022;2023-09-18T02:44:39;22.20;99.90
2623;DHT22;1321;48.690;9.022;2023-09-18T02:47:08;22.10;99.90
2623;DHT22;1321;48.690;9.022;2023-09-18T02:49:36;22.10;99.90
2623;DHT22;1321;48.690;9.022;2023-09-18T02:52:05;22.00;1.00
2623;DHT22;1321;48.690;9.022;2023-09-18T02:54:33;21.90;1.00
2623;DHT22;1321;48.690;9.022;2023-09-18T02:57:01;21.90;1.00
2623;DHT22;1321;48.690;9.022;2023-09-18T02:59:29;21.90;1.00
2623;DHT22;1321;48.690;9.022;2023-09-18T03:01:58;21.80;99.90
2623;DHT22;1321;48.690;9.022;2023-09-18T03:04:29;21.90;1.00
2623;DHT22;1321;48.690;9.022;2023-09-18T03:06:57;21.80;1.00
2623;DHT22;1321;48.690;9.022;2023-09-18T03:09:25;21.80;1.00
2623;DHT22;1321;48.690;9.022;2023-09-18T03:11:53;21.70;1.00
2623;DHT22;1321;48.690;9.022;2023-09-18T03:14:21;21.70;1.00
2623;DHT22;1321;48.690;9.022;2023-09-18T03:16:49;21.60;1.00
2623;DHT22;1321;48.690;9.022;2023-09-18T03:19:17;21.50;1.00
2623;DHT22;1321;48.690;9.022;2023-09-18T03:21:47;21.50;1.00
2623;DHT22;1321;48.690;9.022;2023-09-18T03:24:15;21.60;1.00
2623;DHT22;1321;48.690;9.022;2023-09-18T03:26:43;21.60;1.00
2623;DHT22;1321;48.690;9.022;2023-09-18T03:29:11;21.60;1.00
2623;DHT22;1321;48.690;9.022;2023-09-18T03:31:40;21.60;1.00
2623;DHT22;1321;48.690;9.022;2023-09-18T03:34:08;21.60;1.00
2623;DHT22;1321;48.690;9.022;2023-09-18T03:36:36;21.60;1.00
2623;DHT22;1321;48.690;9.022;2023-09-18T03:39:07;21.60;1.00
2623;DHT22;1321;48.690;9.022;2023-09-18T03:41:36;21.60;1.00
2623;DHT22;1321;48.690;9.022;2023-09-18T03:44:05;21.60;1.00
2623;DHT22;1321;48.690;9.022;2023-09-18T03:46:33;21.50;1.00
2623;DHT22;1321;48.690;9.022;2023-09-18T03:49:01;21.50;1.00
2623;DHT22;1321;48.690;9.022;2023-09-18T03:51:29;21.60;1.00
2623;DHT22;1321;48.690;9.022;2023-09-18T03:53:58;21.70;1.00
2623;DHT22;1321;48.690;9.022;2023-09-18T03:56:27;21.70;1.00
2623;DHT22;1321;48.690;9.022;2023-09-18T03:58:55;21.80;1.00
2623;DHT22;1321;48.690;9.022;2023-09-18T04:01:25;21.80;1.00
2623;DHT22;1321;48.690;9.022;2023-09-18T04:03:53;21.80;1.00
2623;DHT22;1321;48.690;9.022;2023-09-18T04:06:21;21.80;1.00
2623;DHT22;1321;48.690;9.022;2023-09-18T04:08:51;21.80;1.00
2623;DHT22;1321;48.690;9.022;2023-09-18T04:11:19;21.80;1.00
2623;DHT22;1321;48.690;9.022;2023-09-18T04:13:54;21.70;1.00
2623;DHT22;1321;48.690;9.022;2023-09-18T04:16:22;21.70;1.00
2623;DHT22;1321;48.690;9.022;2023-09-18T04:18:50;21.70;1.00
2623;DHT22;1321;48.690;9.022;2023-09-18T04:21:19;21.60;1.00
2623;DHT22;1321;48.690;9.022;2023-09-18T04:23:48;21.60;1.00
2623;DHT22;1321;48.690;9.022;2023-09-18T04:26:22;21.60;1.00
2623;DHT22;1321;48.690;9.022;2023-09-18T04:28:50;21.60;1.00
2623;DHT22;1321;48.690;9.022;2023-09-18T04:31:20;21.60;1.00
2623;DHT22;1321;48.690;9.022;2023-09-18T04:33:52;21.60;1.00
2623;DHT22;1321;48.690;9.022;2023-09-18T04:36:20;21.60;1.00
2623;DHT22;1321;48.690;9.022;2023-09-18T04:38:48;21.50;1.00
2623;DHT22;1321;48.690;9.022;2023-09-18T04:41:17;21.60;1.00
2623;DHT22;1321;48.690;9.022;2023-09-18T04:43:45;21.60;1.00
2623;DHT22;1321;48.690;9.022;2023-09-18T04:46:13;21.70;1.00
2623;DHT22;1321;48.690;9.022;2023-09-18T04:48:43;21.70;1.00
2623;DHT22;1321;48.690;9.022;2023-09-18T04:51:11;21.70;1.00
2623;DHT22;1321;48.690;9.022;2023-09-18T04:53:39;21.70;1.00
2623;DHT22;1321;48.690;9.022;2023-09-18T04:56:08;21.80;1.00
2623;DHT22;1321;48.690;9.022;2023-09-18T04:58:38;21.70;1.00
2623;DHT22;1321;48.690;9.022;2023-09-18T05:01:06;21.60;1.00
2623;DHT22;1321;48.690;9.022;2023-09-18T05:03:35;21.60;1.00
2623;DHT22;1321;48.690;9.022;2023-09-18T05:06:07;21.60;1.00
2623;DHT22;1321;48.690;9.022;2023-09-18T05:08:35;21.60;1.00
2623;DHT22;1321;48.690;9.022;2023-09-18T05:11:04;21.50;1.00
2623;DHT22;1321;48.690;9.022;2023-09-18T05:13:32;21.40;1.00
2623;DHT22;1321;48.690;9.022;2023-09-18T05:16:00;21.40;1.00
2623;DHT22;1321;48.690;9.022;2023-09-18T05:18:30;21.40;1.00
2623;DHT22;1321;48.690;9.022;2023-09-18T05:20:58;21.50;1.00
2623;DHT22;1321;48.690;9.022;2023-09-18T05:23:28;21.50;1.00
2623;DHT22;1321;48.690;9.022;2023-09-18T05:25:56;21.50;1.00
2623;DHT22;1321;48.690;9.022;2023-09-18T05:28:24;21.50;1.00
2623;DHT22;1321;48.690;9.022;2023-09-18T05:30:52;21.50;1.00
2623;DHT22;1321;48.690;9.022;2023-09-18T05:33:20;21.50;1.00
2623;DHT22;1321;48.690;9.022;2023-09-18T05:35:48;21.50;1.00
2623;DHT22;1321;48.690;9.022;2023-09-18T05:38:17;21.50;1.00
2623;DHT22;1321;48.690;9.022;2023-09-18T05:40:47;21.50;1.00
2623;DHT22;1321;48.690;9.022;2023-09-18T05:43:15;21.40;1.00
2623;DHT22;1321;48.690;9.022;2023-09-18T05:45:44;21.40;1.00
2623;DHT22;1321;48.690;9.022;2023-09-18T05:48:13;21.50;1.00
2623;DHT22;1321;48.690;9.022;2023-09-18T05:50:42;21.40;1.00
2623;DHT22;1321;48.690;9.022;2023-09-18T05:53:10;21.40;1.00
2623;DHT22;1321;48.690;9.022;2023-09-18T05:55:38;21.40;1.00
2623;DHT22;1321;48.690;9.022;2023-09-18T05:58:07;21.50;1.00
2623;DHT22;1321;48.690;9.022;2023-09-18T06:00:36;21.50;1.00
2623;DHT22;1321;48.690;9.022;2023-09-18T06:03:04;21.50;1.00
2623;DHT22;1321;48.690;9.022;2023-09-18T06:05:33;21.50;1.00
2623;DHT22;1321;48.690;9.022;2023-09-18T06:08:03;21.40;1.00
2623;DHT22;1321;48.690;9.022;2023-09-18T06:10:35;21.40;1.00
2623;DHT22;1321;48.690;9.022;2023-09-18T06:13:04;21.50;9.50
2623;DHT22;1321;48.690;9.022;2023-09-18T06:15:35;21.40;70.60
2623;DHT22;1321;48.690;9.022;2023-09-18T06:18:04;21.40;96.80
2623;DHT22;1321;48.690;9.022;2023-09-18T06:20:33;21.30;92.60
2623;DHT22;1321;48.690;9.022;2023-09-18T06:23:02;21.30;99.90
2623;DHT22;1321;48.690;9.022;2023-09-18T06:25:31;21.40;99.90
2623;DHT22;1321;48.690;9.022;2023-09-18T06:27:59;21.40;99.90
2623;DHT22;1321;48.690;9.022;2023-09-18T06:30:30;21.40;99.90
2623;DHT22;1321;48.690;9.022;2023-09-18T06:33:02;21.40;99.90
2623;DHT22;1321;48.690;9.022;2023-09-18T06:35:32;21.40;99.90
2623;DHT22;1321;48.690;9.022;2023-09-18T06:38:01;21.50;99.90
2623;DHT22;1321;48.690;9.022;2023-09-18T06:40:29;21.50;99.90
2623;DHT22;1321;48.690;9.022;2023-09-18T06:43:02;21.50;99.90
2623;DHT22;1321;48.690;9.022;2023-09-18T06:45:31;21.50;99.90
2623;DHT22;1321;48.690;9.022;2023-09-18T06:48:04;21.50;99.90
2623;DHT22;1321;48.690;9.022;2023-09-18T06:50:32;21.40;64.00
2623;DHT22;1321;48.690;9.022;2023-09-18T06:53:02;21.40;54.70
2623;DHT22;1321;48.690;9.022;2023-09-18T06:55:31;21.50;47.60
2623;DHT22;1321;48.690;9.022;2023-09-18T06:58:00;21.50;39.40
2623;DHT22;1321;48.690;9.022;2023-09-18T07:00:29;21.50;75.30
2623;DHT22;1321;48.690;9.022;2023-09-18T07:02:57;21.60;2.00
2623;DHT22;1321;48.690;9.022;2023-09-18T07:05:27;21.60;9.60
2623;DHT22;1321;48.690;9.022;2023-09-18T07:07:55;21.40;1.00
2623;DHT22;1321;48.690;9.022;2023-09-18T07:10:24;21.40;1.00
2623;DHT22;1321;48.690;9.022;2023-09-18T07:12:52;21.50;1.00
2623;DHT22;1321;48.690;9.022;2023-09-18T07:15:20;21.50;1.00
2623;DHT22;1321;48.690;9.022;2023-09-18T07:17:48;21.60;1.00
2623;DHT22;1321;48.690;9.022;2023-09-18T07:20:18;21.70;1.00
2623;DHT22;1321;48.690;9.022;2023-09-18T07:22:48;21.70;1.00
2623;DHT22;1321;48.690;9.022;2023-09-18T07:25:17;21.60;1.00
2623;DHT22;1321;48.690;9.022;2023-09-18T07:27:46;21.60;1.00
2623;DHT22;1321;48.690;9.022;2023-09-18T07:30:14;21.60;1.00
2623;DHT22;1321;48.690;9.022;2023-09-18T07:32:44;21.70;1.00
2623;DHT22;1321;48.690;9.022;2023-09-18T07:35:13;21.80;1.00
2623;DHT22;1321;48.690;9.022;2023-09-18T07:37:43;21.80;1.00
2623;DHT22;1321;48.690;9.022;2023-09-18T07:40:15;21.80;1.00
2623;DHT22;1321;48.690;9.022;2023-09-18T07:42:44;21.80;1.00
2623;DHT22;1321;48.690;9.022;2023-09-18T07:45:12;21.70;1.00
2623;DHT22;1321;48.690;9.022;2023-09-18T07:47:40;21.60;1.00
2623;DHT22;1321;48.690;9.022;2023-09-18T07:50:09;21.60;1.00
2623;DHT22;1321;48.690;9.022;2023-09-18T07:52:38;21.60;1.00
2623;DHT22;1321;48.690;9.022;2023-09-18T07:55:07;21.70;1.00
2623;DHT22;1321;48.690;9.022;2023-09-18T07:57:38;21.70;1.00
2623;DHT22;1321;48.690;9.022;2023-09-18T08:00:07;21.70;1.00
2623;DHT22;1321;48.690;9.022;2023-09-18T08:02:39;21.80;1.00
2623;DHT22;1321;48.690;9.022;2023-09-18T08:05:09;21.70;1.00
2623;DHT22;1321;48.690;9.022;2023-09-18T08:07:38;21.70;1.00
2623;DHT22;1321;48.690;9.022;2023-09-18T08:10:10;21.70;1.00
2623;DHT22;1321;48.690;9.022;2023-09-18T08:12:41;21.70;1.00
2623;DHT22;1321;48.690;9.022;2023-09-18T08:15:09;21.70;1.00
2623;DHT22;1321;48.690;9.022;2023-09-18T08:17:38;21.50;1.00
2623;DHT22;1321;48.690;9.022;2023-09-18T08:20:08;21.50;1.00
2623;DHT22;1321;48.690;9.022;2023-09-18T08:22:40;21.50;1.00
2623;DHT22;1321;48.690;9.022;2023-09-18T08:25:09;21.40;1.00
2623;DHT22;1321;48.690;9.022;2023-09-18T08:27:38;21.30;1.00
2623;DHT22;1321;48.690;9.022;2023-09-18T08:30:10;21.20;33.30
2623;DHT22;1321;48.690;9.022;2023-09-18T08:32:39;21.00;99.90
2623;DHT22;1321;48.690;9.022;2023-09-18T08:35:08;21.00;99.90
2623;DHT22;1321;48.690;9.022;2023-09-18T08:37:37;20.90;99.90
2623;DHT22;1321;48.690;9.022;2023-09-18T08:40:06;21.00;1.00
2623;DHT22;1321;48.690;9.022;2023-09-18T08:42:42;20.90;1.00
2623;DHT22;1321;48.690;9.022;2023-09-18T08:45:18;20.70;1.00
2623;DHT22;1321;48.690;9.022;2023-09-18T08:47:47;20.70;1.00
2623;DHT22;1321;48.690;9.022;2023-09-18T08:50:16;20.70;99.90
2623;DHT22;1321;48.690;9.022;2023-09-18T08:52:45;20.80;12.60
2623;DHT22;1321;48.690;9.022;2023-09-18T08:55:15;20.70;99.90
2623;DHT22;1321;48.690;9.022;2023-09-18T08:57:44;20.80;99.90
2623;DHT22;1321;48.690;9.022;2023-09-18T09:00:15;20.80;99.90
2623;DHT22;1321;48.690;9.022;2023-09-18T09:02:44;20.90;99.90
2623;DHT22;1321;48.690;9.022;2023-09-18T09:05:16;20.80;99.90
2623;DHT22;1321;48.690;9.022;2023-09-18T09:07:44;20.70;99.90
2623;DHT22;1321;48.690;9.022;2023-09-18T09:10:12;20.60;1.00
2623;DHT22;1321;48.690;9.022;2023-09-18T09:12:48;20.70;1.00
2623;DHT22;1321;48.690;9.022;2023-09-18T09:15:18;20.70;1.00
2623;DHT22;1321;48.690;9.022;2023-09-18T09:17:47;20.70;1.00
2623;DHT22;1321;48.690;9.022;2023-09-18T09:20:15;20.80;63.50
2623;DHT22;1321;48.690;9.022;2023-09-18T09:22:46;20.80;1.00
2623;DHT22;1321;48.690;9.022;2023-09-18T09:25:24;20.80;1.00
2623;DHT22;1321;48.690;9.022;2023-09-18T09:27:54;20.80;50.20
2623;DHT22;1321;48.690;9.022;2023-09-18T09:30:25;20.80;99.90
2623;DHT22;1321;48.690;9.022;2023-09-18T09:32:56;20.80;30.50
2623;DHT22;1321;48.690;9.022;2023-09-18T09:35:26;20.90;1.30
2623;DHT22;1321;48.690;9.022;2023-09-18T09:37:57;20.80;99.90
2623;DHT22;1321;48.690;9.022;2023-09-18T09:40:29;20.60;1.00
2623;DHT22;1321;48.690;9.022;2023-09-18T09:42:58;20.60;68.20
2623;DHT22;1321;48.690;9.022;2023-09-18T09:45:32;20.50;99.90
2623;DHT22;1321;48.690;9.022;2023-09-18T09:48:05;20.60;99.90
2623;DHT22;1321;48.690;9.022;2023-09-18T09:50:43;20.60;1.00
2623;DHT22;1321;48.690;9.022;2023-09-18T09:53:16;20.60;1.00
2623;DHT22;1321;48.690;9.022;2023-09-18T09:55:51;20.50;1.00
2623;DHT22;1321;48.690;9.022;2023-09-18T09:58:26;20.50;1.00
2623;DHT22;1321;48.690;9.022;2023-09-18T10:01:03;20.50;1.00
2623;DHT22;1321;48.690;9.022;2023-09-18T10:03:36;20.50;91.10
2623;DHT22;1321;48.690;9.022;2023-09-18T10:06:06;20.40;1.00
2623;DHT22;1321;48.690;9.022;2023-09-18T10:08:39;20.40;99.90
2623;DHT22;1321;48.690;9.022;2023-09-18T10:11:09;20.40;1.00
2623;DHT22;1321;48.690;9.022;2023-09-18T10:13:41;20.20;99.90
2623;DHT22;1321;48.690;9.022;2023-09-18T10:16:17;20.40;99.90
2623;DHT22;1321;48.690;9.022;2023-09-18T10:18:56;20.40;1.00
2623;DHT22;1321;48.690;9.022;2023-09-18T10:21:33;20.50;99.90
2623;DHT22;1321;48.690;9.022;2023-09-18T10:24:14;20.50;99.90
2623;DHT22;1321;48.690;9.022;2023-09-18T10:26:54;20.50;99.90
2623;DHT22;1321;48.690;9.022;2023-09-18T10:29:23;20.50;99.90
2623;DHT22;1321;48.690;9.022;2023-09-18T10:31:54;20.60;99.90
2623;DHT22;1321;48.690;9.022;2023-09-18T10:34:24;20.50;99.90
2623;DHT22;1321;48.690;9.022;2023-09-18T10:36:53;20.40;1.00
2623;DHT22;1321;48.690;9.022;2023-09-18T10:39:24;20.40;99.90
2623;DHT22;1321;48.690;9.022;2023-09-18T10:41:55;20.40;99.90
2623;DHT22;1321;48.690;9.022;2023-09-18T10:44:24;20.50;70.30
2623;DHT22;1321;48.690;9.022;2023-09-18T10:46:54;20.50;61.80
2623;DHT22;1321;48.690;9.022;2023-09-18T10:49:23;20.50;1.00
2623;DHT22;1321;48.690;9.022;2023-09-18T10:51:54;20.40;99.90
2623;DHT22;1321;48.690;9.022;2023-09-18T10:54:26;20.40;48.30
2623;DHT22;1321;48.690;9.022;2023-09-18T10:56:56;20.40;99.90
2623;DHT22;1321;48.690;9.022;2023-09-18T10:59:24;20.50;99.90
2623;DHT22;1321;48.690;9.022;2023-09-18T11:01:54;20.50;99.90
2623;DHT22;1321;48.690;9.022;2023-09-18T11:04:23;20.60;99.90
2623;DHT22;1321;48.690;9.022;2023-09-18T11:07:01;20.60;78.90
2623;DHT22;1321;48.690;9.022;2023-09-18T11:09:40;20.50;99.90
2623;DHT22;1321;48.690;9.022;2023-09-18T11:12:09;20.60;99.90
2623;DHT22;1321;48.690;9.022;2023-09-18T11:14:45;20.60;1.00
2623;DHT22;1321;48.690;9.022;2023-09-18T11:17:31;20.60;99.90
2623;DHT22;1321;48.690;9.022;2023-09-18T11:20:05;20.60;99.90
2623;DHT22;1321;48.690;9.022;2023-09-18T11:22:36;20.40;99.90
2623;DHT22;1321;48.690;9.022;2023-09-18T11:28:15;20.50;99.90
2623;DHT22;1321;48.690;9.022;2023-09-18T11:30:49;20.50;99.90
2623;DHT22;1321;48.690;9.022;2023-09-18T11:33:34;20.50;99.90
2623;DHT22;1321;48.690;9.022;2023-09-18T11:36:06;20.60;99.90
2623;DHT22;1321;48.690;9.022;2023-09-18T11:38:35;20.60;99.90
2623;DHT22;1321;48.690;9.022;2023-09-18T11:41:24;20.60;1.00
2623;DHT22;1321;48.690;9.022;2023-09-18T11:44:33;20.60;99.90
2623;DHT22;1321;48.690;9.022;2023-09-18T11:47:10;20.70;1.00
2623;DHT22;1321;48.690;9.022;2023-09-18T11:49:51;20.70;99.90
2623;DHT22;1321;48.690;9.022;2023-09-18T11:52:23;20.70;99.90
2623;DHT22;1321;48.690;9.022;2023-09-18T11:54:53;20.60;11.50
2623;DHT22;1321;48.690;9.022;2023-09-18T11:57:22;20.60;99.90
2623;DHT22;1321;48.690;9.022;2023-09-18T11:59:51;20.70;12.10
2623;DHT22;1321;48.690;9.022;2023-09-18T12:02:26;20.70;1.00
2623;DHT22;1321;48.690;9.022;2023-09-18T12:05:10;20.70;1.00
2623;DHT22;1321;48.690;9.022;2023-09-18T12:07:39;20.70;1.00
2623;DHT22;1321;48.690;9.022;2023-09-18T12:10:11;20.70;1.00
2623;DHT22;1321;48.690;9.022;2023-09-18T12:12:40;20.70;1.00
2623;DHT22;1321;48.690;9.022;2023-09-18T12:15:11;20.70;1.00
2623;DHT22;1321;48.690;9.022;2023-09-18T12:17:39;20.80;1.00
2623;DHT22;1321;48.690;9.022;2023-09-18T12:20:15;20.70;99.90
2623;DHT22;1321;48.690;9.022;2023-09-18T12:22:47;20.60;99.90
2623;DHT22;1321;48.690;9.022;2023-09-18T12:25:17;20.60;99.90
2623;DHT22;1321;48.690;9.022;2023-09-18T12:27:46;20.70;99.90
2623;DHT22;1321;48.690;9.022;2023-09-18T12:30:19;20.70;99.90
2623;DHT22;1321;48.690;9.022;2023-09-18T12:32:51;20.70;99.90
2623;DHT22;1321;48.690;9.022;2023-09-18T12:35:21;20.80;99.90
2623;DHT22;1321;48.690;9.022;2023-09-18T12:37:52;20.80;99.90
2623;DHT22;1321;48.690;9.022;2023-09-18T12:40:24;20.90;99.90
2623;DHT22;1321;48.690;9.022;2023-09-18T12:42:54;21.00;99.90
2623;DHT22;1321;48.690;9.022;2023-09-18T12:45:23;21.10;99.90
2623;DHT22;1321;48.690;9.022;2023-09-18T12:47:54;21.10;99.90
2623;DHT22;1321;48.690;9.022;2023-09-18T12:50:24;21.20;99.90
2623;DHT22;1321;48.690;9.022;2023-09-18T12:52:53;21.20;99.90
2623;DHT22;1321;48.690;9.022;2023-09-18T12:55:25;21.20;99.90
2623;DHT22;1321;48.690;9.022;2023-09-18T12:57:54;21.20;99.90
2623;DHT22;1321;48.690;9.022;2023-09-18T13:00:23;21.20;99.90
2623;DHT22;1321;48.690;9.022;2023-09-18T13:02:54;21.20;99.90
2623;DHT22;1321;48.690;9.022;2023-09-18T13:05:25;21.30;99.90
2623;DHT22;1321;48.690;9.022;2023-09-18T13:07:54;21.30;99.90
2623;DHT22;1321;48.690;9.022;2023-09-18T13:10:23;21.40;99.90
2623;DHT22;1321;48.690;9.022;2023-09-18T13:12:55;21.40;28.00
2623;DHT22;1321;48.690;9.022;2023-09-18T13:15:25;21.30;47.80
2623;DHT22;1321;48.690;9.022;2023-09-18T13:17:56;21.40;1.00
2623;DHT22;1321;48.690;9.022;2023-09-18T13:20:27;21.40;23.20
2623;DHT22;1321;48.690;9.022;2023-09-18T13:22:57;21.40;46.50
2623;DHT22;1321;48.690;9.022;2023-09-18T13:25:29;21.30;46.80
2623;DHT22;1321;48.690;9.022;2023-09-18T13:27:59;21.30;31.50
2623;DHT22;1321;48.690;9.022;2023-09-18T13:30:27;21.30;8.00
2623;DHT22;1321;48.690;9.022;2023-09-18T13:33:03;21.30;10.80
2623;DHT22;1321;48.690;9.022;2023-09-18T13:35:35;21.40;80.10
2623;DHT22;1321;48.690;9.022;2023-09-18T13:38:05;21.40;3.00
2623;DHT22;1321;48.690;9.022;2023-09-18T13:40:35;21.60;1.00
2623;DHT22;1321;48.690;9.022;2023-09-18T13:43:05;21.60;1.00
2623;DHT22;1321;48.690;9.022;2023-09-18T13:45:33;21.50;1.00
2623;DHT22;1321;48.690;9.022;2023-09-18T13:48:02;21.50;1.00
2623;DHT22;1321;48.690;9.022;2023-09-18T13:50:31;21.60;1.00
2623;DHT22;1321;48.690;9.022;2023-09-18T13:53:01;21.70;1.00
2623;DHT22;1321;48.690;9.022;2023-09-18T13:55:30;21.50;1.00
2623;DHT22;1321;48.690;9.022;2023-09-18T13:57:59;21.60;1.00
2623;DHT22;1321;48.690;9.022;2023-09-18T14:00:30;21.50;1.00
2623;DHT22;1321;48.690;9.022;2023-09-18T14:02:59;21.50;1.00
2623;DHT22;1321;48.690;9.022;2023-09-18T14:05:30;21.50;1.00
2623;DHT22;1321;48.690;9.022;2023-09-18T14:08:02;21.40;1.00
2623;DHT22;1321;48.690;9.022;2023-09-18T14:10:31;21.50;1.00
2623;DHT22;1321;48.690;9.022;2023-09-18T14:12:59;21.50;1.00
2623;DHT22;1321;48.690;9.022;2023-09-18T14:15:28;21.50;1.00
2623;DHT22;1321;48.690;9.022;2023-09-18T14:17:56;21.50;1.00
2623;DHT22;1321;48.690;9.022;2023-09-18T14:20:24;21.60;1.00
2623;DHT22;1321;48.690;9.022;2023-09-18T14:22:52;21.60;1.00
2623;DHT22;1321;48.690;9.022;2023-09-18T14:25:22;21.60;1.00
2623;DHT22;1321;48.690;9.022;2023-09-18T14:27:50;21.70;1.00
2623;DHT22;1321;48.690;9.022;2023-09-18T14:30:19;21.70;1.00
2623;DHT22;1321;48.690;9.022;2023-09-18T14:32:48;21.60;1.00
2623;DHT22;1321;48.690;9.022;2023-09-18T14:35:17;21.70;1.00
2623;DHT22;1321;48.690;9.022;2023-09-18T14:37:46;21.70;1.00
2623;DHT22;1321;48.690;9.022;2023-09-18T14:40:14;21.60;1.00
2623;DHT22;1321;48.690;9.022;2023-09-18T14:42:46;21.60;1.00
2623;DHT22;1321;48.690;9.022;2023-09-18T14:45:14;21.60;1.00
2623;DHT22;1321;48.690;9.022;2023-09-18T14:47:43;21.70;1.00
2623;DHT22;1321;48.690;9.022;2023-09-18T14:50:11;21.70;1.00
2623;DHT22;1321;48.690;9.022;2023-09-18T14:52:39;21.70;1.00
2623;DHT22;1321;48.690;9.022;2023-09-18T14:55:08;21.70;1.00
2623;DHT22;1321;48.690;9.022;2023-09-18T14:57:39;21.70;1.00
2623;DHT22;1321;48.690;9.022;2023-09-18T15:00:10;21.60;1.00
2623;DHT22;1321;48.690;9.022;2023-09-18T15:02:40;21.60;1.00
2623;DHT22;1321;48.690;9.022;2023-09-18T15:05:09;21.50;1.00
2623;DHT22;1321;48.690;9.022;2023-09-18T15:07:39;21.50;1.00
2623;DHT22;1321;48.690;9.022;2023-09-18T15:10:08;21.40;1.00
2623;DHT22;1321;48.690;9.022;2023-09-18T15:12:37;21.40;1.00
2623;DHT22;1321;48.690;9.022;2023-09-18T15:15:09;21.40;1.00
2623;DHT22;1321;48.690;9.022;2023-09-18T15:17:37;21.50;1.00
2623;DHT22;1321;48.690;9.022;2023-09-18T15:20:07;21.50;1.00
2623;DHT22;1321;48.690;9.022;2023-09-18T15:22:38;21.60;1.00
2623;DHT22;1321;48.690;9.022;2023-09-18T15:25:08;21.70;1.00
2623;DHT22;1321;48.690;9.022;2023-09-18T15:27:40;21.70;1.00
2623;DHT22;1321;48.690;9.022;2023-09-18T15:30:10;21.80;1.00
2623;DHT22;1321;48.690;9.022;2023-09-18T15:32:46;21.80;1.00
2623;DHT22;1321;48.690;9.022;2023-09-18T15:35:16;21.90;1.00
2623;DHT22;1321;48.690;9.022;2023-09-18T15:37:44;22.00;1.00
2623;DHT22;1321;48.690;9.022;2023-09-18T15:40:13;21.90;1.00
2623;DHT22;1321;48.690;9.022;2023-09-18T15:42:42;21.80;1.00
2623;DHT22;1321;48.690;9.022;2023-09-18T15:45:12;21.80;1.00
2623;DHT22;1321;48.690;9.022;2023-09-18T15:47:40;21.80;1.00
2623;DHT22;1321;48.690;9.022;2023-09-18T15:50:10;21.80;1.00
2623;DHT22;1321;48.690;9.022;2023-09-18T15:52:39;21.80;1.00
2623;DHT22;1321;48.690;9.022;2023-09-18T15:55:08;21.90;1.00
2623;DHT22;1321;48.690;9.022;2023-09-18T15:57:37;21.80;1.00
2623;DHT22;1321;48.690;9.022;2023-09-18T16:00:08;21.90;1.00
2623;DHT22;1321;48.690;9.022;2023-09-18T16:02:38;21.80;1.00
2623;DHT22;1321;48.690;9.022;2023-09-18T16:05:07;21.90;1.00
2623;DHT22;1321;48.690;9.022;2023-09-18T16:07:36;21.80;1.00
2623;DHT22;1321;48.690;9.022;2023-09-18T16:10:07;21.80;1.00
2623;DHT22;1321;48.690;9.022;2023-09-18T16:12:35;21.80;1.00
2623;DHT22;1321;48.690;9.022;2023-09-18T16:15:04;21.70;1.00
2623;DHT22;1321;48.690;9.022;2023-09-18T16:17:34;21.70;1.00
2623;DHT22;1321;48.690;9.022;2023-09-18T16:20:06;21.70;1.00
2623;DHT22;1321;48.690;9.022;2023-09-18T16:22:34;21.80;1.00
2623;DHT22;1321;48.690;9.022;2023-09-18T16:25:03;21.80;1.00
2623;DHT22;1321;48.690;9.022;2023-09-18T16:27:31;21.90;1.00
2623;DHT22;1321;48.690;9.022;2023-09-18T16:29:59;21.80;1.00
2623;DHT22;1321;48.690;9.022;2023-09-18T16:32:29;21.80;1.00
2623;DHT22;1321;48.690;9.022;2023-09-18T16:34:57;21.80;1.00